Fostoria, Ohio
Current Conditions -  °F | °C
As of 12:53 PM on Thursday 29 Jan 2015 (Local Time) from KFDY Reporting Station
Overcast Overcast  
Wind Chill: 32°   Ceiling: 2600
Heat Index: 40°   Visibility: 10mi
Dew Point: 32°   Wind: 14mph
Humidity: 73%   Direction: 210°SSW
Pressure: 29.72"   Gusts: NA
Location:  41.16°N, 83.41°W
Report Text: KFDY 291753Z AUTO 21012KT 10SM OVC026 04/00 A2972 RMK AO2 SLP066 60000 I6000 T00440000 10044 20000 58017
Loading
Personal Weather Stations






























Interactive Weather Map New forecast layout! Learn more

10-Day Weather Forecast

Advertisements
Track Severe Weather on mobile